sensor_id;sensor_type;location;lat;lon;timestamp;temperature;humidity
68439;SHT31;55421;51.600;5.718;2023-06-05T00:02:09;15.97;61.26
68439;SHT31;55421;51.600;5.718;2023-06-05T00:04:36;15.91;61.40
68439;SHT31;55421;51.600;5.718;2023-06-05T00:07:02;15.87;61.54
68439;SHT31;55421;51.600;5.718;2023-06-05T00:09:29;15.82;61.61
68439;SHT31;55421;51.600;5.718;2023-06-05T00:11:55;15.79;61.72
68439;SHT31;55421;51.600;5.718;2023-06-05T00:14:22;15.79;61.86
68439;SHT31;55421;51.600;5.718;2023-06-05T00:16:49;15.77;61.91
68439;SHT31;55421;51.600;5.718;2023-06-05T00:19:18;15.74;61.98
68439;SHT31;55421;51.600;5.718;2023-06-05T00:21:44;15.71;62.03
68439;SHT31;55421;51.600;5.718;2023-06-05T00:24:11;15.65;62.13
68439;SHT31;55421;51.600;5.718;2023-06-05T00:26:37;15.64;62.20
68439;SHT31;55421;51.600;5.718;2023-06-05T00:29:04;15.58;62.26
68439;SHT31;55421;51.600;5.718;2023-06-05T00:31:31;15.53;62.40
68439;SHT31;55421;51.600;5.718;2023-06-05T00:33:58;15.48;62.55
68439;SHT31;55421;51.600;5.718;2023-06-05T00:36:25;15.45;62.67
68439;SHT31;55421;51.600;5.718;2023-06-05T00:38:54;15.44;62.72
68439;SHT31;55421;51.600;5.718;2023-06-05T00:41:20;15.40;62.85
68439;SHT31;55421;51.600;5.718;2023-06-05T00:43:47;15.38;62.99
68439;SHT31;55421;51.600;5.718;2023-06-05T00:46:13;15.39;63.02
68439;SHT31;55421;51.600;5.718;2023-06-05T00:48:41;15.39;63.07
68439;SHT31;55421;51.600;5.718;2023-06-05T00:51:09;15.39;63.12
68439;SHT31;55421;51.600;5.718;2023-06-05T00:53:40;15.37;63.18
68439;SHT31;55421;51.600;5.718;2023-06-05T00:56:11;15.31;63.25
68439;SHT31;55421;51.600;5.718;2023-06-05T00:58:38;15.23;63.39
68439;SHT31;55421;51.600;5.718;2023-06-05T01:01:05;15.19;63.55
68439;SHT31;55421;51.600;5.718;2023-06-05T01:03:37;15.18;63.66
68439;SHT31;55421;51.600;5.718;2023-06-05T01:06:06;15.18;63.72
68439;SHT31;55421;51.600;5.718;2023-06-05T01:08:33;15.18;63.80
68439;SHT31;55421;51.600;5.718;2023-06-05T01:11:11;15.18;63.81
68439;SHT31;55421;51.600;5.718;2023-06-05T01:13:54;15.16;63.89
68439;SHT31;55421;51.600;5.718;2023-06-05T01:16:33;15.14;63.93
68439;SHT31;55421;51.600;5.718;2023-06-05T01:19:00;15.09;64.03
68439;SHT31;55421;51.600;5.718;2023-06-05T01:21:29;15.06;64.12
68439;SHT31;55421;51.600;5.718;2023-06-05T01:23:58;15.02;64.25
68439;SHT31;55421;51.600;5.718;2023-06-05T01:26:28;14.97;64.33
68439;SHT31;55421;51.600;5.718;2023-06-05T01:29:29;14.94;64.47
68439;SHT31;55421;51.600;5.718;2023-06-05T01:32:23;14.93;64.55
68439;SHT31;55421;51.600;5.718;2023-06-05T01:35:06;14.92;64.61
68439;SHT31;55421;51.600;5.718;2023-06-05T01:37:38;14.94;64.65
68439;SHT31;55421;51.600;5.718;2023-06-05T01:40:08;14.90;64.70
68439;SHT31;55421;51.600;5.718;2023-06-05T01:42:40;14.86;64.78
68439;SHT31;55421;51.600;5.718;2023-06-05T01:45:08;14.85;64.83
68439;SHT31;55421;51.600;5.718;2023-06-05T01:47:38;14.81;64.92
68439;SHT31;55421;51.600;5.718;2023-06-05T01:50:06;14.77;64.97
68439;SHT31;55421;51.600;5.718;2023-06-05T01:52:34;14.75;65.08
68439;SHT31;55421;51.600;5.718;2023-06-05T01:55:01;14.73;65.16
68439;SHT31;55421;51.600;5.718;2023-06-05T01:57:28;14.73;65.20
68439;SHT31;55421;51.600;5.718;2023-06-05T01:59:56;14.72;65.25
68439;SHT31;55421;51.600;5.718;2023-06-05T02:02:22;14.69;65.30
68439;SHT31;55421;51.600;5.718;2023-06-05T02:04:49;14.69;65.31
68439;SHT31;55421;51.600;5.718;2023-06-05T02:07:16;14.66;65.37
68439;SHT31;55421;51.600;5.718;2023-06-05T02:09:43;14.62;65.47
68439;SHT31;55421;51.600;5.718;2023-06-05T02:12:09;14.59;65.55
68439;SHT31;55421;51.600;5.718;2023-06-05T02:14:36;14.58;65.65
68439;SHT31;55421;51.600;5.718;2023-06-05T02:17:03;14.56;65.70
68439;SHT31;55421;51.600;5.718;2023-06-05T02:19:32;14.53;65.77
68439;SHT31;55421;51.600;5.718;2023-06-05T02:22:00;14.50;65.88
68439;SHT31;55421;51.600;5.718;2023-06-05T02:24:26;14.48;65.91
68439;SHT31;55421;51.600;5.718;2023-06-05T02:26:53;14.47;65.96
68439;SHT31;55421;51.600;5.718;2023-06-05T02:29:20;14.43;66.03
68439;SHT31;55421;51.600;5.718;2023-06-05T02:31:46;14.40;66.08
68439;SHT31;55421;51.600;5.718;2023-06-05T02:34:13;14.38;66.13
68439;SHT31;55421;51.600;5.718;2023-06-05T02:36:39;14.40;66.18
68439;SHT31;55421;51.600;5.718;2023-06-05T02:39:08;14.38;66.25
68439;SHT31;55421;51.600;5.718;2023-06-05T02:41:36;14.34;66.33
68439;SHT31;55421;51.600;5.718;2023-06-05T02:44:02;14.30;66.40
68439;SHT31;55421;51.600;5.718;2023-06-05T02:46:29;14.26;66.48
68439;SHT31;55421;51.600;5.718;2023-06-05T02:48:55;14.22;66.57
68439;SHT31;55421;51.600;5.718;2023-06-05T02:51:22;14.19;66.65
68439;SHT31;55421;51.600;5.718;2023-06-05T02:53:48;14.15;66.70
68439;SHT31;55421;51.600;5.718;2023-06-05T02:56:15;14.16;66.75
68439;SHT31;55421;51.600;5.718;2023-06-05T02:58:42;14.15;66.87
68439;SHT31;55421;51.600;5.718;2023-06-05T03:01:12;14.15;66.90
68439;SHT31;55421;51.600;5.718;2023-06-05T03:03:39;14.15;66.90
68439;SHT31;55421;51.600;5.718;2023-06-05T03:06:05;14.12;66.91
68439;SHT31;55421;51.600;5.718;2023-06-05T03:08:33;14.07;67.01
68439;SHT31;55421;51.600;5.718;2023-06-05T03:11:02;14.02;67.08
68439;SHT31;55421;51.600;5.718;2023-06-05T03:13:30;13.96;67.15
68439;SHT31;55421;51.600;5.718;2023-06-05T03:15:58;13.93;67.28
68439;SHT31;55421;51.600;5.718;2023-06-05T03:18:29;13.90;67.36
68439;SHT31;55421;51.600;5.718;2023-06-05T03:20:56;13.89;67.48
68439;SHT31;55421;51.600;5.718;2023-06-05T03:23:23;13.88;67.48
68439;SHT31;55421;51.600;5.718;2023-06-05T03:25:51;13.83;67.56
68439;SHT31;55421;51.600;5.718;2023-06-05T03:28:18;13.80;67.70
68439;SHT31;55421;51.600;5.718;2023-06-05T03:30:47;13.78;67.78
68439;SHT31;55421;51.600;5.718;2023-06-05T03:33:15;13.78;67.80
68439;SHT31;55421;51.600;5.718;2023-06-05T03:35:43;13.78;67.80
68439;SHT31;55421;51.600;5.718;2023-06-05T03:38:12;13.80;67.80
68439;SHT31;55421;51.600;5.718;2023-06-05T03:40:40;13.83;67.81
68439;SHT31;55421;51.600;5.718;2023-06-05T03:43:07;13.84;67.81
68439;SHT31;55421;51.600;5.718;2023-06-05T03:45:34;13.86;67.80
68439;SHT31;55421;51.600;5.718;2023-06-05T03:48:03;13.86;67.80
68439;SHT31;55421;51.600;5.718;2023-06-05T03:50:30;13.85;67.79
68439;SHT31;55421;51.600;5.718;2023-06-05T03:52:56;13.85;67.80
68439;SHT31;55421;51.600;5.718;2023-06-05T03:55:31;13.88;67.80
68439;SHT31;55421;51.600;5.718;2023-06-05T03:58:11;13.92;67.79
68439;SHT31;55421;51.600;5.718;2023-06-05T04:00:43;13.96;67.74
68439;SHT31;55421;51.600;5.718;2023-06-05T04:03:17;13.99;67.70
68439;SHT31;55421;51.600;5.718;2023-06-05T04:05:46;14.02;67.60
68439;SHT31;55421;51.600;5.718;2023-06-05T04:08:13;14.04;67.58
68439;SHT31;55421;51.600;5.718;2023-06-05T04:10:40;14.11;67.47
68439;SHT31;55421;51.600;5.718;2023-06-05T04:13:06;14.25;67.31
68439;SHT31;55421;51.600;5.718;2023-06-05T04:15:34;14.54;66.94
68439;SHT31;55421;51.600;5.718;2023-06-05T04:18:01;14.84;66.49
68439;SHT31;55421;51.600;5.718;2023-06-05T04:20:27;15.13;65.99
68439;SHT31;55421;51.600;5.718;2023-06-05T04:22:54;15.38;65.43
68439;SHT31;55421;51.600;5.718;2023-06-05T04:25:20;15.57;64.90
68439;SHT31;55421;51.600;5.718;2023-06-05T04:27:48;15.75;64.52
68439;SHT31;55421;51.600;5.718;2023-06-05T04:30:16;15.96;64.11
68439;SHT31;55421;51.600;5.718;2023-06-05T04:32:43;16.13;63.65
68439;SHT31;55421;51.600;5.718;2023-06-05T04:35:19;16.27;63.24
68439;SHT31;55421;51.600;5.718;2023-06-05T04:37:49;16.37;62.81
68439;SHT31;55421;51.600;5.718;2023-06-05T04:40:16;16.45;62.54
68439;SHT31;55421;51.600;5.718;2023-06-05T04:42:46;16.52;62.34
68439;SHT31;55421;51.600;5.718;2023-06-05T04:45:12;16.53;62.10
68439;SHT31;55421;51.600;5.718;2023-06-05T04:47:39;16.40;62.03
68439;SHT31;55421;51.600;5.718;2023-06-05T04:50:05;16.21;62.25
68439;SHT31;55421;51.600;5.718;2023-06-05T04:52:33;15.99;62.56
68439;SHT31;55421;51.600;5.718;2023-06-05T04:55:01;15.81;62.88
68439;SHT31;55421;51.600;5.718;2023-06-05T04:57:29;15.65;63.04
68439;SHT31;55421;51.600;5.718;2023-06-05T04:59:56;15.51;63.23
68439;SHT31;55421;51.600;5.718;2023-06-05T05:02:24;15.38;63.46
68439;SHT31;55421;51.600;5.718;2023-06-05T05:04:50;15.31;63.74
68439;SHT31;55421;51.600;5.718;2023-06-05T05:07:17;15.27;63.89
68439;SHT31;55421;51.600;5.718;2023-06-05T05:09:43;15.23;63.93
68439;SHT31;55421;51.600;5.718;2023-06-05T05:12:11;15.20;64.00
68439;SHT31;55421;51.600;5.718;2023-06-05T05:14:38;15.18;64.16
68439;SHT31;55421;51.600;5.718;2023-06-05T05:17:06;15.23;64.28
68439;SHT31;55421;51.600;5.718;2023-06-05T05:19:32;15.29;64.27
68439;SHT31;55421;51.600;5.718;2023-06-05T05:21:59;15.35;64.10
68439;SHT31;55421;51.600;5.718;2023-06-05T05:24:26;15.39;63.90
68439;SHT31;55421;51.600;5.718;2023-06-05T05:26:52;15.43;63.83
68439;SHT31;55421;51.600;5.718;2023-06-05T05:29:19;15.47;63.80
68439;SHT31;55421;51.600;5.718;2023-06-05T05:31:46;15.51;63.74
68439;SHT31;55421;51.600;5.718;2023-06-05T05:34:12;15.57;63.72
68439;SHT31;55421;51.600;5.718;2023-06-05T05:36:39;15.63;63.60
68439;SHT31;55421;51.600;5.718;2023-06-05T05:39:05;15.68;63.45
68439;SHT31;55421;51.600;5.718;2023-06-05T05:41:34;15.66;63.20
68439;SHT31;55421;51.600;5.718;2023-06-05T05:44:01;15.68;63.19
68439;SHT31;55421;51.600;5.718;2023-06-05T05:46:27;15.76;63.13
68439;SHT31;55421;51.600;5.718;2023-06-05T05:48:54;15.82;62.91
68439;SHT31;55421;51.600;5.718;2023-06-05T05:51:21;15.86;62.68
68439;SHT31;55421;51.600;5.718;2023-06-05T05:53:48;15.87;62.61
68439;SHT31;55421;51.600;5.718;2023-06-05T05:56:16;15.90;62.47
68439;SHT31;55421;51.600;5.718;2023-06-05T05:58:42;15.93;62.40
68439;SHT31;55421;51.600;5.718;2023-06-05T06:01:10;15.93;62.26
68439;SHT31;55421;51.600;5.718;2023-06-05T06:03:39;15.93;62.19
68439;SHT31;55421;51.600;5.718;2023-06-05T06:06:07;15.95;62.24
68439;SHT31;55421;51.600;5.718;2023-06-05T06:08:34;16.04;62.24
68439;SHT31;55421;51.600;5.718;2023-06-05T06:11:01;16.07;62.04
68439;SHT31;55421;51.600;5.718;2023-06-05T06:17:00;16.09;61.80
68439;SHT31;55421;51.600;5.718;2023-06-05T06:19:28;16.13;61.80
68439;SHT31;55421;51.600;5.718;2023-06-05T06:21:55;16.17;61.70
68439;SHT31;55421;51.600;5.718;2023-06-05T06:24:21;16.23;61.54
68439;SHT31;55421;51.600;5.718;2023-06-05T06:26:48;16.27;61.39
68439;SHT31;55421;51.600;5.718;2023-06-05T06:29:18;16.33;61.39
68439;SHT31;55421;51.600;5.718;2023-06-05T06:31:46;16.39;61.33
68439;SHT31;55421;51.600;5.718;2023-06-05T06:34:13;16.42;61.35
68439;SHT31;55421;51.600;5.718;2023-06-05T06:36:40;16.46;61.20
68439;SHT31;55421;51.600;5.718;2023-06-05T06:39:07;16.50;61.10
68439;SHT31;55421;51.600;5.718;2023-06-05T06:41:36;16.54;61.03
68439;SHT31;55421;51.600;5.718;2023-06-05T06:44:03;16.57;60.93
68439;SHT31;55421;51.600;5.718;2023-06-05T06:46:30;16.63;60.80
68439;SHT31;55421;51.600;5.718;2023-06-05T06:48:58;16.71;60.74
68439;SHT31;55421;51.600;5.718;2023-06-05T06:51:25;16.79;60.64
68439;SHT31;55421;51.600;5.718;2023-06-05T06:53:51;16.87;60.54
68439;SHT31;55421;51.600;5.718;2023-06-05T06:56:18;16.98;60.42
68439;SHT31;55421;51.600;5.718;2023-06-05T06:58:45;17.11;60.26
68439;SHT31;55421;51.600;5.718;2023-06-05T07:01:13;17.21;60.04
68439;SHT31;55421;51.600;5.718;2023-06-05T07:03:40;17.26;59.77
68439;SHT31;55421;51.600;5.718;2023-06-05T07:06:09;17.35;59.87
68439;SHT31;55421;51.600;5.718;2023-06-05T07:08:37;17.47;59.59
68439;SHT31;55421;51.600;5.718;2023-06-05T07:11:04;17.56;59.30
68439;SHT31;55421;51.600;5.718;2023-06-05T07:13:31;17.66;59.35
68439;SHT31;55421;51.600;5.718;2023-06-05T07:15:57;17.74;59.30
68439;SHT31;55421;51.600;5.718;2023-06-05T07:18:24;17.81;59.13
68439;SHT31;55421;51.600;5.718;2023-06-05T07:20:50;17.83;58.90
68439;SHT31;55421;51.600;5.718;2023-06-05T07:23:17;17.82;58.76
68439;SHT31;55421;51.600;5.718;2023-06-05T07:25:44;17.85;58.77
68439;SHT31;55421;51.600;5.718;2023-06-05T07:28:11;17.90;58.66
68439;SHT31;55421;51.600;5.718;2023-06-05T07:30:39;17.97;58.49
68439;SHT31;55421;51.600;5.718;2023-06-05T07:33:09;18.07;58.55
68439;SHT31;55421;51.600;5.718;2023-06-05T07:35:36;18.15;58.42
68439;SHT31;55421;51.600;5.718;2023-06-05T07:38:02;18.16;58.13
68439;SHT31;55421;51.600;5.718;2023-06-05T07:40:29;18.20;58.17
68439;SHT31;55421;51.600;5.718;2023-06-05T07:42:56;18.27;58.08
68439;SHT31;55421;51.600;5.718;2023-06-05T07:45:22;18.34;57.91
68439;SHT31;55421;51.600;5.718;2023-06-05T07:47:49;18.41;57.95
68439;SHT31;55421;51.600;5.718;2023-06-05T07:50:15;18.55;58.03
68439;SHT31;55421;51.600;5.718;2023-06-05T07:52:42;18.66;57.91
68439;SHT31;55421;51.600;5.718;2023-06-05T07:55:08;18.74;57.75
68439;SHT31;55421;51.600;5.718;2023-06-05T07:57:35;18.81;57.57
68439;SHT31;55421;51.600;5.718;2023-06-05T08:00:03;18.90;57.49
68439;SHT31;55421;51.600;5.718;2023-06-05T08:02:36;19.00;57.47
68439;SHT31;55421;51.600;5.718;2023-06-05T08:05:03;19.07;57.28
68439;SHT31;55421;51.600;5.718;2023-06-05T08:07:31;19.11;57.06
68439;SHT31;55421;51.600;5.718;2023-06-05T08:09:57;19.16;57.09
68439;SHT31;55421;51.600;5.718;2023-06-05T08:12:24;19.24;57.31
68439;SHT31;55421;51.600;5.718;2023-06-05T08:14:50;19.33;57.26
68439;SHT31;55421;51.600;5.718;2023-06-05T08:17:17;19.41;57.20
68439;SHT31;55421;51.600;5.718;2023-06-05T08:19:44;19.50;57.09
68439;SHT31;55421;51.600;5.718;2023-06-05T08:22:10;19.56;56.96
68439;SHT31;55421;51.600;5.718;2023-06-05T08:24:38;19.67;56.77
68439;SHT31;55421;51.600;5.718;2023-06-05T08:27:04;19.75;56.69
68439;SHT31;55421;51.600;5.718;2023-06-05T08:29:33;19.80;56.12
68439;SHT31;55421;51.600;5.718;2023-06-05T08:32:05;19.75;55.93
68439;SHT31;55421;51.600;5.718;2023-06-05T08:34:33;19.73;55.96
68439;SHT31;55421;51.600;5.718;2023-06-05T08:37:01;19.70;55.80
68439;SHT31;55421;51.600;5.718;2023-06-05T08:39:28;19.72;56.04
68439;SHT31;55421;51.600;5.718;2023-06-05T08:41:58;19.83;56.03
68439;SHT31;55421;51.600;5.718;2023-06-05T08:44:27;19.98;55.79
68439;SHT31;55421;51.600;5.718;2023-06-05T08:46:57;20.09;55.73
68439;SHT31;55421;51.600;5.718;2023-06-05T08:49:27;20.21;55.34
68439;SHT31;55421;51.600;5.718;2023-06-05T08:52:01;20.30;54.97
68439;SHT31;55421;51.600;5.718;2023-06-05T08:54:31;20.34;54.71
68439;SHT31;55421;51.600;5.718;2023-06-05T08:57:04;20.43;54.89
68439;SHT31;55421;51.600;5.718;2023-06-05T08:59:32;20.55;54.64
68439;SHT31;55421;51.600;5.718;2023-06-05T09:02:00;20.64;54.71
68439;SHT31;55421;51.600;5.718;2023-06-05T09:04:26;20.76;54.63
68439;SHT31;55421;51.600;5.718;2023-06-05T09:06:56;20.90;54.04
68439;SHT31;55421;51.600;5.718;2023-06-05T09:09:25;20.98;53.79
68439;SHT31;55421;51.600;5.718;2023-06-05T09:12:02;21.02;53.37
68439;SHT31;55421;51.600;5.718;2023-06-05T09:14:30;21.03;53.26
68439;SHT31;55421;51.600;5.718;2023-06-05T09:16:57;21.04;53.55
68439;SHT31;55421;51.600;5.718;2023-06-05T09:19:25;21.12;53.46
68439;SHT31;55421;51.600;5.718;2023-06-05T09:22:02;21.24;53.24
68439;SHT31;55421;51.600;5.718;2023-06-05T09:24:29;21.30;53.02
68439;SHT31;55421;51.600;5.718;2023-06-05T09:26:57;21.35;52.65
68439;SHT31;55421;51.600;5.718;2023-06-05T09:29:28;21.42;52.51
68439;SHT31;55421;51.600;5.718;2023-06-05T09:32:02;21.37;52.05
68439;SHT31;55421;51.600;5.718;2023-06-05T09:34:32;21.34;52.50
68439;SHT31;55421;51.600;5.718;2023-06-05T09:37:04;21.34;52.32
68439;SHT31;55421;51.600;5.718;2023-06-05T09:39:34;21.40;52.35
68439;SHT31;55421;51.600;5.718;2023-06-05T09:42:04;21.46;52.06
68439;SHT31;55421;51.600;5.718;2023-06-05T09:44:32;21.52;52.08
68439;SHT31;55421;51.600;5.718;2023-06-05T09:47:03;21.57;51.86
68439;SHT31;55421;51.600;5.718;2023-06-05T09:52:06;21.74;51.91
68439;SHT31;55421;51.600;5.718;2023-06-05T09:54:38;21.82;52.04
68439;SHT31;55421;51.600;5.718;2023-06-05T09:57:08;21.92;51.54
68439;SHT31;55421;51.600;5.718;2023-06-05T09:59:48;22.00;51.53
68439;SHT31;55421;51.600;5.718;2023-06-05T10:02:20;22.05;51.40
68439;SHT31;55421;51.600;5.718;2023-06-05T10:04:55;22.14;51.27
68439;SHT31;55421;51.600;5.718;2023-06-05T10:07:26;22.24;50.72
68439;SHT31;55421;51.600;5.718;2023-06-05T10:09:53;22.39;50.75
68439;SHT31;55421;51.600;5.718;2023-06-05T10:12:20;22.53;50.66
68439;SHT31;55421;51.600;5.718;2023-06-05T10:14:50;22.63;50.14
68439;SHT31;55421;51.600;5.718;2023-06-05T10:17:18;22.72;50.08
68439;SHT31;55421;51.600;5.718;2023-06-05T10:19:46;22.80;49.74
68439;SHT31;55421;51.600;5.718;2023-06-05T10:22:13;22.90;49.89
68439;SHT31;55421;51.600;5.718;2023-06-05T10:24:44;22.94;49.86
68439;SHT31;55421;51.600;5.718;2023-06-05T10:30:29;23.11;49.22
68439;SHT31;55421;51.600;5.718;2023-06-05T10:33:44;23.20;49.26
68439;SHT31;55421;51.600;5.718;2023-06-05T10:36:28;23.19;49.17
68439;SHT31;55421;51.600;5.718;2023-06-05T10:39:14;23.27;49.07
68439;SHT31;55421;51.600;5.718;2023-06-05T10:41:41;23.38;48.89
68439;SHT31;55421;51.600;5.718;2023-06-05T10:44:08;23.47;48.42
68439;SHT31;55421;51.600;5.718;2023-06-05T10:46:35;23.50;48.31
68439;SHT31;55421;51.600;5.718;2023-06-05T10:59:28;23.61;47.75
68439;SHT31;55421;51.600;5.718;2023-06-05T11:15:01;23.77;46.54
68439;SHT31;55421;51.600;5.718;2023-06-05T11:17:30;23.79;46.36
68439;SHT31;55421;51.600;5.718;2023-06-05T11:19:59;23.78;46.26
68439;SHT31;55421;51.600;5.718;2023-06-05T11:22:29;23.74;46.57
68439;SHT31;55421;51.600;5.718;2023-06-05T11:27:42;23.96;46.84
68439;SHT31;55421;51.600;5.718;2023-06-05T11:30:12;24.05;46.26
68439;SHT31;55421;51.600;5.718;2023-06-05T11:32:41;24.06;46.13
68439;SHT31;55421;51.600;5.718;2023-06-05T11:35:08;24.10;45.87
68439;SHT31;55421;51.600;5.718;2023-06-05T11:37:35;24.16;45.93
68439;SHT31;55421;51.600;5.718;2023-06-05T11:40:04;24.14;45.85
68439;SHT31;55421;51.600;5.718;2023-06-05T11:42:36;24.17;46.15
68439;SHT31;55421;51.600;5.718;2023-06-05T11:45:10;24.25;46.20
68439;SHT31;55421;51.600;5.718;2023-06-05T11:47:38;24.34;45.46
68439;SHT31;55421;51.600;5.718;2023-06-05T11:52:37;24.40;45.12
68439;SHT31;55421;51.600;5.718;2023-06-05T11:57:46;24.44;45.11
68439;SHT31;55421;51.600;5.718;2023-06-05T12:00:13;24.49;45.34
68439;SHT31;55421;51.600;5.718;2023-06-05T12:02:42;24.57;45.13
68439;SHT31;55421;51.600;5.718;2023-06-05T12:05:10;24.62;45.04
68439;SHT31;55421;51.600;5.718;2023-06-05T12:07:37;24.71;45.31
68439;SHT31;55421;51.600;5.718;2023-06-05T12:10:06;24.78;44.43
68439;SHT31;55421;51.600;5.718;2023-06-05T12:12:35;24.81;44.21
68439;SHT31;55421;51.600;5.718;2023-06-05T12:15:16;24.79;43.96
68439;SHT31;55421;51.600;5.718;2023-06-05T12:17:50;24.85;43.76
68439;SHT31;55421;51.600;5.718;2023-06-05T12:20:22;24.88;43.44
68439;SHT31;55421;51.600;5.718;2023-06-05T12:22:49;24.89;43.53
68439;SHT31;55421;51.600;5.718;2023-06-05T12:25:19;24.88;43.17
68439;SHT31;55421;51.600;5.718;2023-06-05T12:27:48;24.89;43.57
68439;SHT31;55421;51.600;5.718;2023-06-05T12:30:15;24.95;43.82
68439;SHT31;55421;51.600;5.718;2023-06-05T12:32:43;24.99;43.89
68439;SHT31;55421;51.600;5.718;2023-06-05T12:35:19;25.03;42.93
68439;SHT31;55421;51.600;5.718;2023-06-05T12:37:48;25.04;42.44
68439;SHT31;55421;51.600;5.718;2023-06-05T12:40:16;25.08;42.49
68439;SHT31;55421;51.600;5.718;2023-06-05T12:42:47;25.10;42.67
68439;SHT31;55421;51.600;5.718;2023-06-05T12:45:14;25.08;42.59
68439;SHT31;55421;51.600;5.718;2023-06-05T12:47:42;25.03;42.79
68439;SHT31;55421;51.600;5.718;2023-06-05T12:50:10;25.02;42.72
68439;SHT31;55421;51.600;5.718;2023-06-05T12:52:38;24.99;42.86
68439;SHT31;55421;51.600;5.718;2023-06-05T12:55:08;24.93;42.43
68439;SHT31;55421;51.600;5.718;2023-06-05T12:57:36;24.87;42.69
68439;SHT31;55421;51.600;5.718;2023-06-05T13:00:03;24.87;42.16
68439;SHT31;55421;51.600;5.718;2023-06-05T13:02:37;24.92;40.73
68439;SHT31;55421;51.600;5.718;2023-06-05T13:05:04;25.01;39.96
68439;SHT31;55421;51.600;5.718;2023-06-05T13:07:31;25.12;41.22
68439;SHT31;55421;51.600;5.718;2023-06-05T13:09:57;25.14;41.45
68439;SHT31;55421;51.600;5.718;2023-06-05T13:12:24;25.09;41.38
68439;SHT31;55421;51.600;5.718;2023-06-05T13:14:51;25.05;40.40
68439;SHT31;55421;51.600;5.718;2023-06-05T13:17:18;25.02;39.19
68439;SHT31;55421;51.600;5.718;2023-06-05T13:19:44;25.00;37.88
68439;SHT31;55421;51.600;5.718;2023-06-05T13:22:11;25.04;38.60
68439;SHT31;55421;51.600;5.718;2023-06-05T13:24:37;25.09;38.87
68439;SHT31;55421;51.600;5.718;2023-06-05T13:27:04;25.09;38.28
68439;SHT31;55421;51.600;5.718;2023-06-05T13:29:31;25.11;37.88
68439;SHT31;55421;51.600;5.718;2023-06-05T13:31:57;25.15;38.96
68439;SHT31;55421;51.600;5.718;2023-06-05T13:34:36;25.18;39.23
68439;SHT31;55421;51.600;5.718;2023-06-05T13:37:02;25.18;38.80
68439;SHT31;55421;51.600;5.718;2023-06-05T13:39:29;25.17;38.80
68439;SHT31;55421;51.600;5.718;2023-06-05T13:41:56;25.15;39.05
68439;SHT31;55421;51.600;5.718;2023-06-05T13:44:23;25.08;38.59
68439;SHT31;55421;51.600;5.718;2023-06-05T13:46:49;25.05;38.01
68439;SHT31;55421;51.600;5.718;2023-06-05T13:49:16;25.03;36.47
68439;SHT31;55421;51.600;5.718;2023-06-05T13:51:42;25.01;35.48
68439;SHT31;55421;51.600;5.718;2023-06-05T13:54:09;25.02;35.99
68439;SHT31;55421;51.600;5.718;2023-06-05T13:56:35;25.04;36.71
68439;SHT31;55421;51.600;5.718;2023-06-05T13:59:02;25.05;37.23
68439;SHT31;55421;51.600;5.718;2023-06-05T14:01:28;25.06;37.37
68439;SHT31;55421;51.600;5.718;2023-06-05T14:03:55;25.05;38.06
68439;SHT31;55421;51.600;5.718;2023-06-05T14:06:21;25.08;37.93
68439;SHT31;55421;51.600;5.718;2023-06-05T14:08:48;25.07;37.74
68439;SHT31;55421;51.600;5.718;2023-06-05T14:11:15;25.00;37.94
68439;SHT31;55421;51.600;5.718;2023-06-05T14:13:41;24.96;37.94
68439;SHT31;55421;51.600;5.718;2023-06-05T14:16:08;24.91;37.44
68439;SHT31;55421;51.600;5.718;2023-06-05T14:18:38;24.88;37.07
68439;SHT31;55421;51.600;5.718;2023-06-05T14:21:05;24.86;37.05
68439;SHT31;55421;51.600;5.718;2023-06-05T14:23:32;24.83;37.19
68439;SHT31;55421;51.600;5.718;2023-06-05T14:25:58;24.79;37.12
68439;SHT31;55421;51.600;5.718;2023-06-05T14:28:25;24.72;36.84
68439;SHT31;55421;51.600;5.718;2023-06-05T14:30:51;24.70;36.79
68439;SHT31;55421;51.600;5.718;2023-06-05T14:33:18;24.70;36.64
68439;SHT31;55421;51.600;5.718;2023-06-05T14:35:45;24.71;36.49
68439;SHT31;55421;51.600;5.718;2023-06-05T14:38:11;24.74;36.56
68439;SHT31;55421;51.600;5.718;2023-06-05T14:40:38;24.78;37.40
68439;SHT31;55421;51.600;5.718;2023-06-05T14:43:06;24.79;37.67
68439;SHT31;55421;51.600;5.718;2023-06-05T14:45:33;24.80;37.63
68439;SHT31;55421;51.600;5.718;2023-06-05T14:47:59;24.83;37.46
68439;SHT31;55421;51.600;5.718;2023-06-05T14:50:26;24.88;37.31
68439;SHT31;55421;51.600;5.718;2023-06-05T14:52:52;24.93;37.07
68439;SHT31;55421;51.600;5.718;2023-06-05T14:55:19;24.92;36.97
68439;SHT31;55421;51.600;5.718;2023-06-05T14:57:46;24.81;37.11
68439;SHT31;55421;51.600;5.718;2023-06-05T15:00:12;24.72;36.99
68439;SHT31;55421;51.600;5.718;2023-06-05T15:02:39;24.62;36.96
68439;SHT31;55421;51.600;5.718;2023-06-05T15:05:06;24.58;37.29
68439;SHT31;55421;51.600;5.718;2023-06-05T15:07:36;24.58;37.44
68439;SHT31;55421;51.600;5.718;2023-06-05T15:10:05;24.59;37.89
68439;SHT31;55421;51.600;5.718;2023-06-05T15:12:34;24.61;37.95
68439;SHT31;55421;51.600;5.718;2023-06-05T15:15:01;24.60;37.68
68439;SHT31;55421;51.600;5.718;2023-06-05T15:17:29;24.60;37.80
68439;SHT31;55421;51.600;5.718;2023-06-05T15:19:55;24.58;37.91
68439;SHT31;55421;51.600;5.718;2023-06-05T15:22:22;24.51;37.77
68439;SHT31;55421;51.600;5.718;2023-06-05T15:24:48;24.45;38.11
68439;SHT31;55421;51.600;5.718;2023-06-05T15:27:15;24.46;38.52
68439;SHT31;55421;51.600;5.718;2023-06-05T15:29:42;24.49;38.44
68439;SHT31;55421;51.600;5.718;2023-06-05T15:32:08;24.54;38.43
68439;SHT31;55421;51.600;5.718;2023-06-05T15:34:35;24.57;38.47
68439;SHT31;55421;51.600;5.718;2023-06-05T15:37:02;24.56;38.53
68439;SHT31;55421;51.600;5.718;2023-06-05T15:39:29;24.55;38.74
68439;SHT31;55421;51.600;5.718;2023-06-05T15:41:55;24.57;38.83
68439;SHT31;55421;51.600;5.718;2023-06-05T15:44:22;24.59;38.61
68439;SHT31;55421;51.600;5.718;2023-06-05T15:46:48;24.60;38.70
68439;SHT31;55421;51.600;5.718;2023-06-05T15:49:15;24.61;39.21
68439;SHT31;55421;51.600;5.718;2023-06-05T15:51:41;24.62;39.35
68439;SHT31;55421;51.600;5.718;2023-06-05T15:54:08;24.58;39.31
68439;SHT31;55421;51.600;5.718;2023-06-05T15:56:36;24.56;39.39
68439;SHT31;55421;51.600;5.718;2023-06-05T15:59:03;24.55;39.37
68439;SHT31;55421;51.600;5.718;2023-06-05T16:01:29;24.56;39.67
68439;SHT31;55421;51.600;5.718;2023-06-05T16:03:56;24.56;39.69
68439;SHT31;55421;51.600;5.718;2023-06-05T16:06:22;24.49;39.70
68439;SHT31;55421;51.600;5.718;2023-06-05T16:08:49;24.46;39.75
68439;SHT31;55421;51.600;5.718;2023-06-05T16:11:17;24.46;39.97
68439;SHT31;55421;51.600;5.718;2023-06-05T16:13:43;24.47;39.90
68439;SHT31;55421;51.600;5.718;2023-06-05T16:16:10;24.47;39.96
68439;SHT31;55421;51.600;5.718;2023-06-05T16:18:37;24.47;40.00